Welcome to Des Moines Iowa Weather. I am an independent private personal weather station on the Northwest Side of Des Moines, Iowa. Just East of Windsor Heights and just West of Glendale . This site is also mobile friendly.

There are no active watches, warnings or advisories


Visit our other weather sites:

Historical Data

Weather Station Setup



Weather Underground History page Text

Daily Summary for February 6, 2017 Units:  English    Metric   Both
« Previous Day
Next Day »
Daily Weekly Monthly Yearly Custom
  High: Low: Average:
Temperature: 55.9 °F 26.9 °F 40.6 °F
Dew Point: 45.0 °F 22.0 °F 34.5 °F
Humidity: 89 % 67 % 79 %
Wind Speed: 4.0 mph 0.0 mph 0.6 mph
Wind Gust: 8.0 mph - -
Wind:- - South
Pressure: 30.01 in 29.48 in -
Precipitation: 0.00 in    
Historical Graphs
 
 
Tabular Data for February 6, 2017
Time Temperature Dew Point Pressure Wind Wind Speed Wind Gust Humidity Rainfall Rate (Hourly)
00:06 29.3 °F 23.0 °F 30.01 in South 2.0 mph 4.0 mph 77 % 0.00 in
00:21 29.3 °F 23.0 °F 30.00 in South 1.0 mph 2.0 mph 77 % 0.00 in
00:36 29.1 °F 23.0 °F 30.01 in Calm   4.0 mph 78 % 0.00 in
00:51 28.9 °F 23.0 °F 30.00 in Calm   2.0 mph 78 % 0.00 in
01:06 28.7 °F 23.0 °F 30.00 in Calm   2.0 mph 78 % 0.00 in
01:21 28.4 °F 23.0 °F 30.00 in Calm     79 % 0.00 in
01:37 28.0 °F 22.0 °F 29.99 in Calm     79 % 0.00 in
01:52 27.6 °F 22.0 °F 29.98 in Calm     80 % 0.00 in
02:07 27.4 °F 22.0 °F 29.97 in Calm   2.0 mph 81 % 0.00 in
02:22 27.4 °F 23.0 °F 29.97 in South 2.0 mph 2.0 mph 82 % 0.00 in
02:37 27.6 °F 23.0 °F 29.96 in Calm   3.0 mph 82 % 0.00 in
02:52 27.7 °F 23.0 °F 29.95 in South 1.0 mph 3.0 mph 82 % 0.00 in
03:07 27.7 °F 23.0 °F 29.95 in Calm   3.0 mph 83 % 0.00 in
03:22 27.6 °F 23.0 °F 29.95 in South 2.0 mph 3.0 mph 83 % 0.00 in
03:37 27.5 °F 23.0 °F 29.94 in Calm   1.0 mph 83 % 0.00 in
03:52 27.4 °F 23.0 °F 29.93 in Calm     83 % 0.00 in
04:07 27.2 °F 23.0 °F 29.93 in Calm   2.0 mph 83 % 0.00 in
04:22 27.1 °F 23.0 °F 29.92 in Calm     84 % 0.00 in
04:37 27.2 °F 23.0 °F 29.91 in Calm   3.0 mph 85 % 0.00 in
04:52 27.5 °F 24.0 °F 29.91 in Calm   3.0 mph 86 % 0.00 in
05:07 27.9 °F 24.0 °F 29.90 in Calm   3.0 mph 85 % 0.00 in
05:22 27.8 °F 24.0 °F 29.90 in South 1.0 mph 5.0 mph 85 % 0.00 in
05:38 27.8 °F 24.0 °F 29.89 in Calm   2.0 mph 85 % 0.00 in
05:52 27.7 °F 24.0 °F 29.88 in Calm   3.0 mph 85 % 0.00 in
06:07 27.3 °F 23.0 °F 29.88 in Calm     85 % 0.00 in
06:22 27.0 °F 23.0 °F 29.87 in Calm     86 % 0.00 in
06:37 26.9 °F 23.0 °F 29.87 in Calm   1.0 mph 86 % 0.00 in
06:52 26.9 °F 24.0 °F 29.87 in Calm   1.0 mph 87 % 0.00 in
07:07 27.0 °F 24.0 °F 29.87 in Calm   1.0 mph 87 % 0.00 in
07:22 27.1 °F 24.0 °F 29.88 in Calm   3.0 mph 88 % 0.00 in
07:37 27.3 °F 24.0 °F 29.87 in Calm   2.0 mph 88 % 0.00 in
07:52 27.5 °F 24.0 °F 29.87 in South 2.0 mph 2.0 mph 88 % 0.00 in
08:07 28.0 °F 25.0 °F 29.86 in South 2.0 mph 3.0 mph 88 % 0.00 in
08:22 28.9 °F 26.0 °F 29.86 in South 2.0 mph 5.0 mph 88 % 0.00 in
08:37 29.6 °F 26.0 °F 29.86 in South 2.0 mph 3.0 mph 87 % 0.00 in
08:52 30.5 °F 27.0 °F 29.85 in South 4.0 mph 4.0 mph 87 % 0.00 in
09:07 31.7 °F 28.0 °F 29.85 in Calm   5.0 mph 85 % 0.00 in
09:23 32.6 °F 28.0 °F 29.84 in Calm   4.0 mph 84 % 0.00 in
09:38 33.8 °F 29.0 °F 29.84 in SSW 3.0 mph 5.0 mph 83 % 0.00 in
09:53 36.7 °F 31.0 °F 29.83 in SSW 4.0 mph 5.0 mph 79 % 0.00 in
10:08 37.8 °F 31.0 °F 29.83 in SSW 2.0 mph 2.0 mph 77 % 0.00 in
10:23 40.0 °F 33.0 °F 29.82 in SSE 2.0 mph 5.0 mph 75 % 0.00 in
10:38 42.4 °F 34.0 °F 29.81 in SSW 2.0 mph 5.0 mph 73 % 0.00 in
10:53 43.9 °F 36.0 °F 29.79 in WSW 2.0 mph 8.0 mph 73 % 0.00 in
11:08 44.9 °F 36.0 °F 29.78 in SW 2.0 mph 7.0 mph 72 % 0.00 in
11:23 46.0 °F 37.0 °F 29.77 in Calm   4.0 mph 71 % 0.00 in
11:38 47.1 °F 38.0 °F 29.77 in SSW 1.0 mph 3.0 mph 71 % 0.00 in
11:53 47.7 °F 39.0 °F 29.75 in South 2.0 mph 4.0 mph 71 % 0.00 in
12:08 49.3 °F 40.0 °F 29.75 in South 2.0 mph 6.0 mph 70 % 0.00 in
12:23 49.3 °F 39.0 °F 29.75 in Calm   6.0 mph 69 % 0.00 in
12:38 50.9 °F 41.0 °F 29.74 in SSW 1.0 mph 3.0 mph 69 % 0.00 in
12:54 51.6 °F 41.0 °F 29.73 in Calm   6.0 mph 68 % 0.00 in
13:09 52.9 °F 43.0 °F 29.73 in South 2.0 mph 6.0 mph 68 % 0.00 in
13:24 52.9 °F 43.0 °F 29.71 in South 4.0 mph 6.0 mph 68 % 0.00 in
13:39 53.1 °F 43.0 °F 29.70 in Calm   4.0 mph 68 % 0.00 in
13:55 53.4 °F 43.0 °F 29.69 in WSW 1.0 mph 3.0 mph 68 % 0.00 in
14:09 54.2 °F 43.0 °F 29.68 in Calm   3.0 mph 67 % 0.00 in
14:24 53.9 °F 43.0 °F 29.67 in SSW 1.0 mph 5.0 mph 68 % 0.00 in
14:39 54.5 °F 44.0 °F 29.65 in Calm   2.0 mph 68 % 0.00 in
14:54 55.1 °F 45.0 °F 29.64 in Calm   4.0 mph 68 % 0.00 in
15:09 55.7 °F 45.0 °F 29.65 in Calm   5.0 mph 68 % 0.00 in
15:24 55.9 °F 45.0 °F 29.64 in SW 1.0 mph 6.0 mph 67 % 0.00 in
15:39 54.7 °F 45.0 °F 29.64 in Calm   6.0 mph 69 % 0.00 in
15:55 54.0 °F 44.0 °F 29.64 in SW 2.0 mph 5.0 mph 70 % 0.00 in
16:09 53.6 °F 44.0 °F 29.64 in Calm   7.0 mph 71 % 0.00 in
16:24 53.2 °F 44.0 °F 29.62 in Calm   2.0 mph 71 % 0.00 in
16:39 52.5 °F 44.0 °F 29.63 in Calm   1.0 mph 72 % 0.00 in
16:54 52.3 °F 44.0 °F 29.62 in Calm     72 % 0.00 in
17:09 51.7 °F 43.0 °F 29.62 in Calm     73 % 0.00 in
17:24 51.1 °F 43.0 °F 29.61 in Calm     75 % 0.00 in
17:39 50.1 °F 42.0 °F 29.61 in Calm     74 % 0.00 in
17:54 49.3 °F 42.0 °F 29.60 in Calm     77 % 0.00 in
18:09 48.5 °F 42.0 °F 29.59 in Calm     79 % 0.00 in
18:24 47.8 °F 42.0 °F 29.59 in Calm     79 % 0.00 in
18:39 47.3 °F 42.0 °F 29.60 in Calm     82 % 0.00 in
18:54 47.7 °F 43.0 °F 29.59 in Calm   3.0 mph 84 % 0.00 in
19:09 48.1 °F 44.0 °F 29.60 in Calm   1.0 mph 84 % 0.00 in
19:24 48.5 °F 44.0 °F 29.59 in Calm     83 % 0.00 in
19:39 48.7 °F 43.0 °F 29.57 in Calm   1.0 mph 82 % 0.00 in
19:55 48.8 °F 44.0 °F 29.57 in SSE 1.0 mph 4.0 mph 82 % 0.00 in
20:09 49.1 °F 44.0 °F 29.57 in Calm   2.0 mph 82 % 0.00 in
20:24 49.0 °F 44.0 °F 29.56 in Calm   1.0 mph 82 % 0.00 in
20:39 49.0 °F 44.0 °F 29.55 in Calm     82 % 0.00 in
20:55 48.8 °F 44.0 °F 29.54 in Calm     83 % 0.00 in
21:10 48.4 °F 44.0 °F 29.54 in Calm     83 % 0.00 in
21:24 48.1 °F 44.0 °F 29.54 in Calm     84 % 0.00 in
21:39 47.9 °F 43.0 °F 29.54 in Calm     84 % 0.00 in
21:55 47.6 °F 43.0 °F 29.53 in Calm     84 % 0.00 in
22:10 47.3 °F 43.0 °F 29.53 in Calm     85 % 0.00 in
22:25 47.1 °F 43.0 °F 29.51 in Calm   2.0 mph 85 % 0.00 in
22:40 46.8 °F 43.0 °F 29.50 in Calm     85 % 0.00 in
22:55 46.2 °F 42.0 °F 29.50 in Calm     85 % 0.00 in
23:10 45.5 °F 41.0 °F 29.50 in Calm     84 % 0.00 in
23:25 44.6 °F 40.0 °F 29.49 in Calm     85 % 0.00 in
23:40 44.3 °F 41.0 °F 29.49 in Calm     88 % 0.00 in
23:55 44.5 °F 42.0 °F 29.48 in Calm     89 % 0.00 in
Des Moines Weather and Climate
Compliments of Weather Underground - 3 mb

Script developed by  Jim McMurry - jmcmurry@mwt.net Adapted for the template by  Wim van der Kuil - Leuven-Template.eu

You find our weather info also at:

Weather Underground

Equipment we use:

Weather-station
Davis VP2 Plus

Weather-program
Davis Weatherlink.Com

Weather-server
iMac (Retina 4K, 21.5-inch, Late 2015)

Provider
Hostmonster.com

Davis VP2 Plus

Davis Weatherlink.Com

iMac (Retina 4K, 21.5-inch, Late 2015)

Hostmonster.com